createdAt,value
2023-05-16T00:02:11.148Z,6.20
2023-05-16T00:04:38.644Z,6.50
2023-05-16T00:07:05.709Z,6.50
2023-05-16T00:09:32.756Z,6.50
2023-05-16T00:12:00.087Z,6.00
2023-05-16T00:14:28.078Z,6.50
2023-05-16T00:16:58.104Z,6.80
2023-05-16T00:19:26.335Z,6.90
2023-05-16T00:21:53.322Z,6.80
2023-05-16T00:24:20.265Z,6.80
2023-05-16T00:26:47.225Z,7.00
2023-05-16T00:29:14.307Z,7.30
2023-05-16T00:31:41.476Z,7.60
2023-05-16T00:34:08.690Z,6.90
2023-05-16T00:36:36.029Z,6.30
2023-05-16T00:39:03.951Z,7.50
2023-05-16T00:41:31.387Z,7.70
2023-05-16T00:43:58.536Z,7.50
2023-05-16T00:46:25.558Z,8.00
2023-05-16T00:48:52.787Z,7.30
2023-05-16T00:51:20.095Z,7.90
2023-05-16T00:53:48.142Z,8.30
2023-05-16T00:56:16.452Z,7.60
2023-05-16T00:58:43.880Z,8.30
2023-05-16T01:01:11.373Z,7.90
2023-05-16T01:03:39.139Z,8.10
2023-05-16T01:06:06.427Z,8.00
2023-05-16T01:08:33.665Z,8.00
2023-05-16T01:11:19.629Z,7.50
2023-05-16T01:14:21.127Z,7.30
2023-05-16T01:16:56.924Z,7.80
2023-05-16T01:19:30.719Z,8.20
2023-05-16T01:22:16.040Z,7.90
2023-05-16T01:25:17.493Z,7.50
2023-05-16T01:27:45.453Z,7.80
2023-05-16T01:30:17.706Z,8.40
2023-05-16T01:32:45.082Z,8.40
2023-05-16T01:35:15.745Z,7.80
2023-05-16T01:40:30.596Z,8.40
2023-05-16T01:43:03.969Z,7.90
2023-05-16T01:45:34.601Z,9.30
2023-05-16T01:50:36.452Z,9.50
2023-05-16T01:53:11.861Z,8.70
2023-05-16T01:55:52.133Z,8.90
2023-05-16T01:58:23.203Z,9.70
2023-05-16T02:00:53.399Z,9.10
2023-05-16T02:03:20.435Z,9.40
2023-05-16T02:05:47.534Z,9.60
2023-05-16T02:08:14.666Z,10.50
2023-05-16T02:10:41.690Z,9.90
2023-05-16T02:13:09.022Z,9.50
2023-05-16T02:15:36.116Z,10.00
2023-05-16T02:18:03.176Z,9.20
2023-05-16T02:20:30.416Z,10.00
2023-05-16T02:22:57.391Z,9.40
2023-05-16T02:25:24.708Z,10.20
2023-05-16T02:27:51.968Z,9.90
2023-05-16T02:30:19.127Z,9.90
2023-05-16T02:32:46.202Z,9.20
2023-05-16T02:35:13.359Z,10.90
2023-05-16T02:37:41.246Z,10.70
2023-05-16T02:40:08.896Z,10.70
2023-05-16T02:42:35.939Z,10.70
2023-05-16T02:45:03.091Z,11.20
2023-05-16T02:47:30.487Z,10.30
2023-05-16T02:49:57.625Z,10.60
2023-05-16T02:52:24.767Z,10.00
2023-05-16T02:55:04.754Z,10.00
2023-05-16T02:57:38.946Z,10.60
2023-05-16T03:00:06.998Z,9.60
2023-05-16T03:02:34.229Z,10.30
2023-05-16T03:05:01.540Z,11.10
2023-05-16T03:07:28.561Z,11.00
2023-05-16T03:09:55.880Z,9.50
2023-05-16T03:12:22.859Z,9.50
2023-05-16T03:14:51.342Z,11.40
2023-05-16T03:17:18.336Z,10.60
2023-05-16T03:19:45.513Z,11.40
2023-05-16T03:22:12.958Z,10.90
2023-05-16T03:24:40.026Z,10.50
2023-05-16T03:27:07.701Z,10.60
2023-05-16T03:29:34.857Z,10.70
2023-05-16T03:32:02.179Z,11.00
2023-05-16T03:34:29.286Z,10.30
2023-05-16T03:36:57.129Z,10.80
2023-05-16T03:39:24.091Z,10.90
2023-05-16T03:41:51.908Z,10.80
2023-05-16T03:44:19.039Z,10.90
2023-05-16T03:46:46.060Z,11.60
2023-05-16T03:49:13.028Z,11.90
2023-05-16T03:51:40.013Z,12.10
2023-05-16T03:54:06.985Z,12.50
2023-05-16T03:56:34.048Z,12.90
2023-05-16T03:59:01.026Z,12.20
2023-05-16T04:01:29.308Z,12.70
2023-05-16T04:03:56.326Z,11.20
2023-05-16T04:06:23.363Z,12.80
2023-05-16T04:08:50.549Z,12.80
2023-05-16T04:11:17.726Z,12.40
2023-05-16T04:13:44.966Z,11.30
2023-05-16T04:16:12.629Z,11.60
2023-05-16T04:18:39.673Z,11.50
2023-05-16T04:21:07.385Z,11.20
2023-05-16T04:23:34.530Z,11.20
2023-05-16T04:26:04.330Z,12.60
2023-05-16T04:28:31.542Z,10.90
2023-05-16T04:30:58.699Z,11.20
2023-05-16T04:33:25.862Z,11.20
2023-05-16T04:35:54.524Z,11.70
2023-05-16T04:38:22.238Z,11.20
2023-05-16T04:40:52.626Z,10.80
2023-05-16T04:43:20.023Z,10.80
2023-05-16T04:45:47.284Z,10.30
2023-05-16T04:48:15.062Z,11.10
2023-05-16T04:50:42.140Z,10.90
2023-05-16T04:53:09.664Z,11.50
2023-05-16T04:55:36.976Z,11.10
2023-05-16T04:58:04.088Z,10.60
2023-05-16T05:00:31.689Z,9.90
2023-05-16T05:02:59.725Z,10.90
2023-05-16T05:05:28.281Z,10.70
2023-05-16T05:07:59.035Z,10.80
2023-05-16T05:10:27.489Z,10.60
2023-05-16T05:12:56.351Z,10.20
2023-05-16T05:15:26.471Z,9.90
2023-05-16T05:17:53.961Z,10.50
2023-05-16T05:20:21.382Z,11.50
2023-05-16T05:22:48.473Z,10.90
2023-05-16T05:25:15.856Z,10.50
2023-05-16T05:27:45.889Z,10.30
2023-05-16T05:30:15.674Z,10.50
2023-05-16T06:07:07.726Z,11.40
2023-05-16T06:21:37.007Z,10.90
2023-05-16T06:31:47.190Z,10.50
2023-05-16T06:34:14.314Z,11.30
2023-05-16T06:36:41.615Z,11.90
2023-05-16T06:39:08.577Z,11.40
2023-05-16T06:41:36.436Z,11.50
2023-05-16T06:53:20.091Z,12.20
2023-05-16T06:56:05.863Z,12.50
2023-05-16T07:04:17.328Z,10.60
2023-05-16T07:08:30.655Z,12.50
2023-05-16T07:11:12.220Z,12.60
2023-05-16T07:13:39.396Z,12.70
2023-05-16T07:16:08.173Z,12.90
2023-05-16T07:18:35.782Z,12.50
2023-05-16T07:21:03.073Z,14.10
2023-05-16T07:23:30.640Z,14.50
2023-05-16T07:25:58.964Z,14.80
2023-05-16T07:28:26.620Z,14.50
2023-05-16T07:30:54.441Z,13.90
2023-05-16T07:33:21.730Z,13.10
2023-05-16T07:35:49.757Z,11.80
2023-05-16T07:38:16.912Z,11.70
2023-05-16T07:40:44.164Z,11.30
2023-05-16T07:43:11.374Z,12.30
2023-05-16T07:45:38.788Z,11.10
2023-05-16T07:48:06.322Z,10.70
2023-05-16T07:50:33.685Z,10.60
2023-05-16T07:53:01.401Z,8.90
2023-05-16T07:55:28.851Z,9.90
2023-05-16T07:57:56.461Z,10.10
2023-05-16T08:00:23.863Z,9.20
2023-05-16T08:02:51.638Z,10.60
2023-05-16T08:05:18.984Z,8.70
2023-05-16T08:07:46.302Z,8.50
2023-05-16T08:10:13.715Z,8.30
2023-05-16T08:12:41.193Z,7.10
2023-05-16T08:15:09.305Z,6.20
2023-05-16T08:17:36.950Z,5.40
2023-05-16T08:20:05.565Z,6.00
2023-05-16T08:22:33.368Z,5.70
2023-05-16T08:25:00.726Z,5.90
2023-05-16T08:27:28.716Z,5.50
2023-05-16T08:29:55.806Z,5.30
2023-05-16T08:32:25.344Z,5.30
2023-05-16T08:34:52.506Z,4.50
2023-05-16T08:37:19.722Z,4.80
2023-05-16T08:39:46.867Z,5.20
2023-05-16T08:42:14.772Z,4.80
2023-05-16T08:44:42.167Z,5.20
2023-05-16T08:47:18.678Z,5.30
2023-05-16T08:50:11.867Z,5.20
2023-05-16T08:56:29.366Z,4.60
2023-05-16T09:08:09.859Z,5.40
2023-05-16T09:15:58.257Z,4.80
2023-05-16T09:22:58.227Z,4.50
2023-05-16T09:25:31.752Z,4.30
2023-05-16T09:28:01.740Z,5.00
2023-05-16T09:30:32.325Z,5.10
2023-05-16T09:32:59.722Z,5.40
2023-05-16T09:35:43.266Z,4.50
2023-05-16T09:38:17.751Z,4.70
2023-05-16T09:40:46.454Z,3.90
2023-05-16T09:43:18.019Z,3.80
2023-05-16T09:45:53.944Z,4.10
2023-05-16T09:48:23.428Z,3.80
2023-05-16T09:50:54.376Z,3.50
2023-05-16T09:53:30.606Z,3.30
2023-05-16T09:56:02.060Z,3.30
2023-05-16T09:58:38.777Z,3.20
2023-05-16T10:01:13.136Z,3.20
2023-05-16T10:03:42.288Z,3.30
2023-05-16T10:06:12.572Z,3.30
2023-05-16T10:08:42.548Z,3.30
2023-05-16T10:11:10.906Z,2.80
2023-05-16T10:13:38.807Z,3.40
2023-05-16T10:16:10.989Z,3.30
2023-05-16T10:18:39.772Z,3.30
2023-05-16T10:21:15.658Z,3.30
2023-05-16T10:23:47.277Z,3.20
2023-05-16T10:26:17.103Z,3.00
2023-05-16T10:28:45.183Z,3.20
2023-05-16T10:31:14.292Z,2.80
2023-05-16T10:33:41.962Z,3.30
2023-05-16T10:36:10.561Z,3.50
2023-05-16T10:38:39.092Z,3.40
2023-05-16T10:41:08.373Z,3.30
2023-05-16T10:43:36.441Z,3.50
2023-05-16T10:46:07.167Z,3.50
2023-05-16T10:48:36.611Z,3.90
2023-05-16T10:51:24.442Z,3.50
2023-05-16T10:53:52.829Z,3.50
2023-05-16T10:56:24.796Z,3.40
2023-05-16T10:58:54.162Z,3.40
2023-05-16T11:01:28.937Z,3.10
2023-05-16T11:03:59.595Z,3.10
2023-05-16T11:06:28.364Z,3.00
2023-05-16T11:09:11.431Z,2.90
2023-05-16T11:11:46.324Z,3.10
2023-05-16T11:14:22.872Z,2.80
2023-05-16T11:17:15.433Z,3.00
2023-05-16T11:19:45.181Z,2.70
2023-05-16T11:22:41.993Z,3.10
2023-05-16T11:25:10.708Z,3.20
2023-05-16T11:27:47.026Z,2.70
2023-05-16T11:30:17.360Z,2.80
2023-05-16T11:32:46.480Z,3.10
2023-05-16T11:35:16.472Z,2.80
2023-05-16T11:37:46.512Z,3.10
2023-05-16T11:40:16.805Z,3.20
2023-05-16T11:42:47.501Z,2.80
2023-05-16T11:45:17.002Z,3.30
2023-05-16T11:47:45.932Z,3.10
2023-05-16T11:50:21.960Z,3.10
2023-05-16T11:52:54.040Z,3.10
2023-05-16T11:55:36.807Z,3.10
2023-05-16T11:58:08.456Z,2.80
2023-05-16T12:00:35.745Z,2.90
2023-05-16T12:03:05.031Z,2.80
2023-05-16T12:05:34.336Z,2.80
2023-05-16T12:08:04.337Z,2.70
2023-05-16T12:10:36.208Z,3.30
2023-05-16T12:13:03.979Z,3.10
2023-05-16T12:15:31.724Z,3.10
2023-05-16T12:17:59.320Z,3.40
2023-05-16T12:20:26.673Z,3.40
2023-05-16T12:22:57.745Z,3.10
2023-05-16T12:25:32.738Z,3.40
2023-05-16T12:28:03.914Z,3.40
2023-05-16T12:30:32.674Z,3.10
2023-05-16T12:33:08.251Z,3.30
2023-05-16T12:35:38.766Z,3.40
2023-05-16T12:38:08.429Z,3.40
2023-05-16T12:40:41.480Z,3.30
2023-05-16T12:43:22.915Z,3.60
2023-05-16T12:45:55.031Z,3.20
2023-05-16T12:48:23.871Z,3.50
2023-05-16T12:50:51.080Z,3.90
2023-05-16T12:53:19.097Z,3.40
2023-05-16T12:55:46.583Z,3.50
2023-05-16T12:58:14.125Z,4.00
2023-05-16T13:00:41.409Z,3.60
2023-05-16T13:03:10.106Z,4.10
2023-05-16T13:05:37.438Z,3.90
2023-05-16T13:08:04.965Z,3.70
2023-05-16T13:10:32.062Z,3.60
2023-05-16T13:12:59.769Z,3.40
2023-05-16T13:15:27.442Z,3.80
2023-05-16T13:17:55.065Z,3.80
2023-05-16T13:20:22.443Z,3.90
2023-05-16T13:22:49.900Z,3.30
2023-05-16T13:25:17.657Z,4.00
2023-05-16T13:27:44.813Z,3.70
2023-05-16T13:30:12.244Z,3.90
2023-05-16T13:32:39.576Z,3.80
2023-05-16T13:35:07.309Z,4.60
2023-05-16T13:37:34.874Z,4.30
2023-05-16T13:40:02.312Z,4.40
2023-05-16T13:42:29.525Z,4.60
2023-05-16T13:44:56.766Z,4.60
2023-05-16T13:47:23.836Z,4.10
2023-05-16T13:49:51.194Z,4.50
2023-05-16T13:52:18.596Z,4.50
2023-05-16T13:54:46.144Z,4.20
2023-05-16T13:57:13.321Z,4.60
2023-05-16T14:02:10.977Z,4.70
2023-05-16T14:04:38.572Z,4.60
2023-05-16T14:07:05.683Z,4.70
2023-05-16T14:09:34.772Z,4.70
2023-05-16T14:12:04.718Z,5.30
2023-05-16T14:14:31.955Z,5.00
2023-05-16T14:16:59.300Z,5.00
2023-05-16T14:19:26.776Z,4.90
2023-05-16T14:21:54.703Z,4.60
2023-05-16T14:24:22.375Z,4.90
2023-05-16T14:26:56.972Z,4.80
2023-05-16T14:29:25.009Z,4.60
2023-05-16T14:31:52.937Z,4.80
2023-05-16T14:34:21.937Z,4.70
2023-05-16T14:36:49.230Z,4.50
2023-05-16T14:39:16.378Z,4.10
2023-05-16T14:41:43.519Z,4.40
2023-05-16T14:44:10.659Z,4.00
2023-05-16T14:46:42.077Z,3.70
2023-05-16T14:49:09.758Z,3.40
2023-05-16T14:51:42.205Z,4.00
2023-05-16T14:54:22.134Z,3.40
2023-05-16T14:56:50.228Z,4.30
2023-05-16T14:59:17.390Z,3.70
2023-05-16T15:01:44.911Z,3.50
2023-05-16T15:04:12.155Z,3.70
2023-05-16T15:06:42.549Z,3.30
2023-05-16T15:09:11.668Z,3.50
2023-05-16T15:11:41.747Z,3.50
2023-05-16T15:14:12.415Z,3.50
2023-05-16T15:16:39.771Z,3.50
2023-05-16T15:19:09.578Z,3.80
2023-05-16T15:21:37.100Z,3.50
2023-05-16T15:24:04.681Z,3.60
2023-05-16T15:26:33.933Z,3.60
2023-05-16T15:29:05.788Z,3.40
2023-05-16T15:31:33.305Z,3.20
2023-05-16T15:34:01.204Z,3.30
2023-05-16T15:36:31.632Z,3.20
2023-05-16T15:39:04.900Z,3.40
2023-05-16T15:41:56.940Z,3.50
2023-05-16T15:44:23.889Z,3.30
2023-05-16T15:46:51.266Z,3.70
2023-05-16T15:49:21.926Z,3.70
2023-05-16T15:51:50.868Z,3.80
2023-05-16T15:54:18.716Z,3.60
2023-05-16T15:56:48.764Z,3.40
2023-05-16T15:59:17.040Z,3.80
2023-05-16T16:01:48.880Z,3.50
2023-05-16T16:04:23.373Z,4.10
2023-05-16T16:06:54.428Z,3.90
2023-05-16T16:09:21.659Z,3.30
2023-05-16T16:11:50.162Z,3.60
2023-05-16T16:14:19.522Z,3.80
2023-05-16T16:16:47.511Z,3.80
2023-05-16T16:19:15.294Z,3.60
2023-05-16T16:21:45.355Z,3.80
2023-05-16T16:24:15.673Z,3.40
2023-05-16T16:26:43.376Z,3.30
2023-05-16T16:29:14.908Z,3.90
2023-05-16T16:31:41.988Z,3.50
2023-05-16T16:34:09.559Z,3.60
2023-05-16T16:36:39.035Z,4.40
2023-05-16T16:39:07.532Z,4.30
2023-05-16T16:41:34.677Z,4.20
2023-05-16T16:44:02.213Z,4.30
2023-05-16T16:46:32.962Z,4.50
2023-05-16T16:49:01.588Z,4.10
2023-05-16T16:51:35.532Z,4.10
2023-05-16T16:54:05.441Z,4.40
2023-05-16T16:56:36.012Z,4.20
2023-05-16T16:59:03.240Z,4.20
2023-05-16T17:02:08.378Z,4.20
2023-05-16T17:05:23.462Z,4.50
2023-05-16T17:08:42.945Z,4.80
2023-05-16T17:12:48.595Z,4.20
2023-05-16T17:16:35.761Z,4.40
2023-05-16T17:20:03.685Z,4.30
2023-05-16T17:26:43.637Z,4.70
2023-05-16T17:29:16.812Z,4.30
2023-05-16T17:32:02.164Z,4.60
2023-05-16T17:34:32.965Z,4.70
2023-05-16T17:37:06.570Z,4.80
2023-05-16T17:39:35.078Z,5.30
2023-05-16T17:42:05.133Z,5.00
2023-05-16T17:44:32.629Z,5.70
2023-05-16T17:46:59.780Z,4.90
2023-05-16T17:49:29.999Z,4.40
2023-05-16T17:51:57.912Z,4.70
2023-05-16T17:54:26.802Z,5.00
2023-05-16T17:59:22.854Z,4.80
2023-05-16T18:01:49.951Z,5.20
2023-05-16T18:04:19.347Z,5.10
2023-05-16T18:06:48.001Z,5.30
2023-05-16T18:09:15.137Z,5.10
2023-05-16T18:11:42.234Z,5.20
2023-05-16T18:14:09.735Z,4.90
2023-05-16T18:16:36.811Z,4.70
2023-05-16T18:19:05.108Z,5.60
2023-05-16T18:22:32.315Z,5.10
2023-05-16T18:24:57.262Z,4.80
2023-05-16T18:27:24.324Z,5.50
2023-05-16T18:29:51.398Z,5.20
2023-05-16T18:32:18.587Z,5.80
2023-05-16T18:34:45.533Z,6.00
2023-05-16T18:37:12.789Z,5.90
2023-05-16T18:39:41.369Z,6.50
2023-05-16T18:42:08.634Z,6.90
2023-05-16T18:44:36.726Z,6.60
2023-05-16T18:47:03.844Z,7.00
2023-05-16T18:53:47.338Z,7.60
2023-05-16T19:00:47.663Z,7.40
2023-05-16T19:11:14.546Z,7.10
2023-05-16T19:14:39.779Z,7.50
2023-05-16T19:17:06.888Z,7.50
2023-05-16T19:23:31.480Z,7.30
2023-05-16T19:26:24.561Z,6.90
2023-05-16T19:29:12.364Z,7.50
2023-05-16T19:31:50.685Z,7.50
2023-05-16T19:34:20.126Z,7.00
2023-05-16T19:36:48.064Z,7.40
2023-05-16T19:39:18.495Z,7.80
2023-05-16T19:42:29.749Z,8.70
2023-05-16T19:48:48.343Z,8.30
2023-05-16T19:53:17.216Z,8.40
2023-05-16T19:55:41.680Z,8.20
2023-05-16T19:58:08.736Z,8.50
2023-05-16T20:00:35.772Z,8.00
2023-05-16T20:03:02.979Z,8.70
2023-05-16T20:06:03.857Z,8.50
2023-05-16T20:13:10.957Z,8.90
2023-05-16T20:34:07.414Z,9.40
2023-05-16T20:40:00.110Z,9.70
2023-05-16T20:42:42.248Z,9.60
2023-05-16T20:45:09.889Z,9.40
2023-05-16T20:47:38.183Z,9.60
2023-05-16T20:50:10.096Z,10.00
2023-05-16T20:52:37.213Z,10.30
2023-05-16T20:55:04.727Z,10.40
2023-05-16T20:57:31.774Z,9.70
2023-05-16T20:59:59.055Z,9.80
2023-05-16T21:02:26.108Z,9.70
2023-05-16T21:04:53.270Z,10.30
2023-05-16T21:07:21.707Z,10.10
2023-05-16T21:09:48.776Z,10.10
2023-05-16T21:12:15.844Z,9.20
2023-05-16T21:14:43.802Z,10.30
2023-05-16T21:17:10.859Z,10.00
2023-05-16T21:19:38.513Z,11.00
2023-05-16T21:22:05.559Z,10.80
2023-05-16T21:24:35.251Z,10.60
2023-05-16T21:27:03.766Z,11.10
2023-05-16T21:29:30.810Z,11.30
2023-05-16T21:31:58.329Z,10.70
2023-05-16T21:34:25.519Z,9.90
2023-05-16T21:36:53.440Z,9.80
2023-05-16T21:39:20.509Z,10.30
2023-05-16T21:41:47.629Z,10.20
2023-05-16T21:44:16.814Z,9.90
2023-05-16T21:46:44.452Z,10.40
2023-05-16T21:49:11.597Z,11.30
2023-05-16T21:51:39.038Z,10.00
2023-05-16T21:54:06.231Z,9.90
2023-05-16T21:56:33.283Z,10.00
2023-05-16T21:59:00.711Z,10.00
2023-05-16T22:01:29.023Z,9.50
2023-05-16T22:03:57.112Z,10.20
2023-05-16T22:06:27.493Z,10.70
2023-05-16T22:08:54.729Z,11.10
2023-05-16T22:11:21.966Z,10.00
2023-05-16T22:13:50.574Z,10.70
2023-05-16T22:16:18.076Z,10.00
2023-05-16T22:18:45.451Z,9.90
2023-05-16T22:21:12.823Z,11.30
2023-05-16T22:23:40.074Z,11.10
2023-05-16T22:26:07.219Z,11.00
2023-05-16T22:28:34.187Z,10.80
2023-05-16T22:31:01.325Z,10.60
2023-05-16T22:33:28.499Z,10.50
2023-05-16T22:35:55.784Z,11.20
2023-05-16T22:38:22.737Z,10.90
2023-05-16T22:40:49.754Z,11.60
2023-05-16T22:43:16.815Z,13.00
2023-05-16T22:45:43.856Z,12.80
2023-05-16T22:48:10.960Z,11.00
2023-05-16T22:50:38.122Z,12.60
2023-05-16T22:53:05.157Z,12.70
2023-05-16T22:55:33.538Z,12.90
2023-05-16T22:58:00.652Z,13.80
2023-05-16T23:00:27.760Z,13.30
2023-05-16T23:02:54.860Z,13.60
2023-05-16T23:05:22.049Z,13.40
2023-05-16T23:07:49.083Z,13.10
2023-05-16T23:10:16.206Z,14.20
2023-05-16T23:12:43.444Z,14.30
2023-05-16T23:15:11.002Z,14.30
2023-05-16T23:17:38.312Z,14.60
2023-05-16T23:20:07.093Z,16.00
2023-05-16T23:22:34.175Z,14.50
2023-05-16T23:25:01.237Z,15.70
2023-05-16T23:27:28.387Z,16.30
2023-05-16T23:29:55.418Z,16.00
2023-05-16T23:32:23.086Z,16.20
2023-05-16T23:34:50.048Z,18.20
2023-05-16T23:37:17.002Z,18.00
2023-05-16T23:39:43.989Z,17.40
2023-05-16T23:42:11.103Z,17.90
2023-05-16T23:44:41.417Z,17.00
2023-05-16T23:47:08.566Z,17.50
2023-05-16T23:49:35.669Z,17.80
2023-05-16T23:52:05.536Z,17.90
2023-05-16T23:54:33.822Z,18.50
2023-05-16T23:57:00.929Z,17.00
2023-05-16T23:59:28.066Z,16.50
